createdAt,value
2019-04-03T00:00:13.350Z,34.27
2019-04-03T00:02:41.803Z,35.25
2019-04-03T00:05:10.279Z,35.00
2019-04-03T00:07:38.721Z,34.58
2019-04-03T00:10:08.098Z,36.23
2019-04-03T00:12:36.908Z,37.45
2019-04-03T00:15:09.560Z,38.02
2019-04-03T00:17:38.062Z,37.40
2019-04-03T00:20:07.856Z,36.88
2019-04-03T00:22:37.694Z,37.85
2019-04-03T00:25:07.187Z,38.08
2019-04-03T00:27:35.635Z,36.40
2019-04-03T00:30:06.307Z,38.42
2019-04-03T00:32:34.839Z,38.53
2019-04-03T00:35:04.527Z,35.90
2019-04-03T00:37:32.962Z,37.00
2019-04-03T00:40:01.407Z,37.20
2019-04-03T00:42:29.839Z,37.20
2019-04-03T00:44:58.291Z,37.30
2019-04-03T00:47:26.737Z,36.60
2019-04-03T00:49:58.163Z,36.35
2019-04-03T00:52:27.569Z,37.40
2019-04-03T00:54:57.112Z,37.17
2019-04-03T00:57:26.417Z,35.58
2019-04-03T00:59:56.409Z,36.25
2019-04-03T01:02:27.851Z,37.40
2019-04-03T01:04:58.093Z,36.77
2019-04-03T01:07:27.521Z,37.05
2019-04-03T01:09:59.345Z,37.83
2019-04-03T01:12:30.392Z,38.10
2019-04-03T01:14:58.046Z,36.95
2019-04-03T01:17:26.498Z,36.03
2019-04-03T01:19:54.939Z,36.65
2019-04-03T01:22:23.374Z,36.30
2019-04-03T01:24:51.879Z,39.35
2019-04-03T01:27:20.315Z,37.30
2019-04-03T01:29:48.767Z,38.02
2019-04-03T01:32:17.203Z,35.80
2019-04-03T01:34:47.648Z,34.98
2019-04-03T01:37:16.806Z,35.75
2019-04-03T01:39:45.967Z,36.58
2019-04-03T01:42:14.420Z,34.90
2019-04-03T01:44:43.023Z,37.53
2019-04-03T01:47:11.453Z,36.73
2019-04-03T01:49:39.919Z,37.55
2019-04-03T01:52:08.349Z,37.65
2019-04-03T01:54:36.892Z,37.70
2019-04-03T01:57:06.661Z,34.98
2019-04-03T01:59:35.838Z,36.03
2019-04-03T02:02:06.885Z,37.10
2019-04-03T02:04:35.931Z,36.42
2019-04-03T02:07:04.391Z,35.88
2019-04-03T02:09:32.891Z,35.25
2019-04-03T02:12:01.331Z,32.03
2019-04-03T02:14:29.870Z,34.43
2019-04-03T02:16:58.350Z,31.50
2019-04-03T02:19:26.810Z,31.68
2019-04-03T02:21:58.164Z,31.17
2019-04-03T02:24:25.582Z,32.70
2019-04-03T02:26:54.059Z,30.43
2019-04-03T02:29:22.584Z,28.77
2019-04-03T02:31:52.735Z,27.15
2019-04-03T02:34:21.200Z,27.62
2019-04-03T02:36:49.654Z,29.57
2019-04-03T02:39:18.352Z,27.27
2019-04-03T02:41:46.942Z,28.20
2019-04-03T02:44:18.222Z,29.82
2019-04-03T02:46:45.728Z,27.67
2019-04-03T02:49:14.233Z,28.67
2019-04-03T02:51:44.102Z,30.12
2019-04-03T02:54:29.860Z,29.63
2019-04-03T02:56:58.912Z,27.58
2019-04-03T02:59:27.664Z,27.35
2019-04-03T03:01:56.310Z,30.37
2019-04-03T03:04:26.134Z,28.73
2019-04-03T03:06:54.904Z,30.55
2019-04-03T03:09:23.886Z,31.65
2019-04-03T03:11:55.225Z,29.60
2019-04-03T03:14:23.540Z,31.60
2019-04-03T03:16:52.511Z,32.10
2019-04-03T03:19:23.010Z,31.73
2019-04-03T03:21:53.668Z,32.00
2019-04-03T03:24:22.324Z,34.20
2019-04-03T03:26:51.101Z,33.95
2019-04-03T03:29:25.088Z,31.73
2019-04-03T03:32:15.473Z,33.05
2019-04-03T03:34:44.970Z,32.10
2019-04-03T03:36:59.177Z,33.58
2019-04-03T03:39:23.944Z,32.90
2019-04-03T03:41:56.158Z,32.13
2019-04-03T03:44:22.837Z,34.75
2019-04-03T03:46:54.001Z,32.20
2019-04-03T03:49:24.462Z,35.63
2019-04-03T03:51:53.255Z,35.65
2019-04-03T03:54:21.795Z,34.35
2019-04-03T03:56:50.992Z,34.85
2019-04-03T03:59:20.527Z,36.88
2019-04-03T04:01:49.856Z,37.08
2019-04-03T04:04:18.562Z,37.00
2019-04-03T04:06:47.852Z,36.75
2019-04-03T04:09:17.973Z,35.38
2019-04-03T04:11:46.561Z,36.05
2019-04-03T04:14:15.482Z,36.75
2019-04-03T04:16:44.236Z,37.33
2019-04-03T04:19:13.633Z,38.13
2019-04-03T04:21:45.071Z,38.10
2019-04-03T04:24:13.739Z,37.05
2019-04-03T04:26:43.323Z,37.03
2019-04-03T04:29:12.552Z,37.98
2019-04-03T04:31:43.333Z,37.65
2019-04-03T04:34:11.357Z,37.10
2019-04-03T04:36:41.845Z,36.98
2019-04-03T04:39:12.056Z,37.15
2019-04-03T04:41:40.506Z,40.03
2019-04-03T04:44:14.177Z,38.23
2019-04-03T04:46:43.612Z,39.20
2019-04-03T04:49:12.003Z,40.28
2019-04-03T04:51:40.452Z,40.23
2019-04-03T04:54:08.889Z,38.70
2019-04-03T04:56:38.128Z,39.98
2019-04-03T04:59:06.893Z,38.70
2019-04-03T05:01:35.347Z,39.60
2019-04-03T05:04:03.847Z,40.58
2019-04-03T05:06:32.340Z,40.50
2019-04-03T05:09:03.293Z,40.25
2019-04-03T05:11:30.977Z,38.45
2019-04-03T05:13:59.402Z,40.67
2019-04-03T05:16:27.870Z,41.65
2019-04-03T05:19:08.394Z,40.65
2019-04-03T05:21:26.609Z,39.27
2019-04-03T05:23:56.079Z,40.43
2019-04-03T05:26:25.190Z,40.88
2019-04-03T05:28:57.444Z,41.28
2019-04-03T05:31:23.799Z,42.98
2019-04-03T05:33:52.253Z,44.10
2019-04-03T05:36:20.791Z,43.45
2019-04-03T05:38:49.243Z,44.35
2019-04-03T05:41:17.687Z,43.15
2019-04-03T05:43:46.122Z,43.87
2019-04-03T05:46:14.775Z,44.40
2019-04-03T05:48:43.727Z,44.88
2019-04-03T05:51:12.653Z,42.23
2019-04-03T05:53:41.193Z,43.80
2019-04-03T05:56:11.654Z,43.02
2019-04-03T05:58:39.804Z,42.40
2019-04-03T06:01:10.584Z,40.52
2019-04-03T06:03:44.230Z,39.53
2019-04-03T06:06:08.619Z,40.33
2019-04-03T06:08:37.071Z,40.48
2019-04-03T06:11:07.956Z,40.90
2019-04-03T06:13:35.722Z,38.92
2019-04-03T06:16:04.242Z,39.63
2019-04-03T06:18:32.672Z,39.38
2019-04-03T06:21:01.134Z,37.58
2019-04-03T06:23:29.582Z,36.83
2019-04-03T06:26:02.102Z,35.78
2019-04-03T06:28:29.851Z,34.60
2019-04-03T06:30:58.329Z,33.48
2019-04-03T06:33:27.088Z,34.78
2019-04-03T06:35:56.753Z,35.55
2019-04-03T06:38:25.263Z,35.00
2019-04-03T06:40:54.062Z,32.23
2019-04-03T06:43:22.667Z,32.45
2019-04-03T06:45:51.143Z,30.45
2019-04-03T06:48:19.650Z,27.32
2019-04-03T06:50:48.232Z,28.83
2019-04-03T06:53:16.701Z,25.57
2019-04-03T06:55:45.331Z,25.27
2019-04-03T06:58:13.880Z,27.48
2019-04-03T07:00:47.339Z,24.10
2019-04-03T07:03:15.739Z,23.70
2019-04-03T07:05:44.166Z,21.27
2019-04-03T07:08:12.911Z,20.85
2019-04-03T07:10:42.636Z,20.50
2019-04-03T07:13:11.600Z,19.87
2019-04-03T07:15:40.040Z,19.85
2019-04-03T07:18:08.470Z,19.50
2019-04-03T07:20:37.228Z,21.25
2019-04-03T07:23:06.153Z,19.57
2019-04-03T07:25:35.052Z,20.02
2019-04-03T07:28:04.042Z,22.02
2019-04-03T07:30:32.555Z,22.50
2019-04-03T07:33:01.170Z,22.45
2019-04-03T07:35:29.991Z,23.80
2019-04-03T07:37:58.437Z,22.55
2019-04-03T07:40:26.886Z,22.85
2019-04-03T07:42:56.384Z,21.42
2019-04-03T07:45:25.431Z,21.27
2019-04-03T07:47:53.895Z,20.85
2019-04-03T07:50:22.317Z,21.80
2019-04-03T07:52:50.780Z,21.20
2019-04-03T07:55:19.265Z,21.62
2019-04-03T07:57:47.752Z,20.40
2019-04-03T08:00:16.347Z,21.42
2019-04-03T08:02:47.980Z,20.57
2019-04-03T08:05:15.202Z,21.52
2019-04-03T08:07:43.946Z,20.70
2019-04-03T08:10:12.614Z,20.65
2019-04-03T08:12:41.066Z,20.27
2019-04-03T08:15:12.736Z,20.85
2019-04-03T08:17:40.601Z,20.70
2019-04-03T08:20:09.323Z,19.90
2019-04-03T08:22:38.075Z,20.08
2019-04-03T08:25:10.602Z,18.07
2019-04-03T08:27:37.615Z,19.82
2019-04-03T08:30:08.682Z,17.92
2019-04-03T08:32:37.503Z,15.43
2019-04-03T08:35:19.713Z,17.23
2019-04-03T08:37:40.901Z,18.27
2019-04-03T08:40:11.250Z,21.30
2019-04-03T08:42:39.683Z,19.00
2019-04-03T08:45:11.938Z,17.57
2019-04-03T08:47:46.176Z,18.42
2019-04-03T08:50:14.028Z,16.87
2019-04-03T08:52:42.552Z,16.30
2019-04-03T08:55:14.036Z,17.35
2019-04-03T08:57:41.371Z,15.65
2019-04-03T09:00:11.903Z,15.70
2019-04-03T09:02:42.548Z,14.33
2019-04-03T09:05:13.269Z,13.00
2019-04-03T09:07:40.865Z,12.50
2019-04-03T09:10:10.217Z,13.10
2019-04-03T09:12:38.933Z,13.32
2019-04-03T09:15:08.248Z,13.68
2019-04-03T09:17:36.759Z,14.00
2019-04-03T09:20:05.851Z,13.62
2019-04-03T09:22:34.310Z,12.43
2019-04-03T09:25:03.102Z,13.80
2019-04-03T09:27:31.650Z,13.80
2019-04-03T09:30:00.105Z,13.85
2019-04-03T09:32:28.548Z,11.90
2019-04-03T09:35:00.515Z,11.38
2019-04-03T09:37:28.124Z,13.53
2019-04-03T09:39:56.558Z,13.83
2019-04-03T09:42:25.021Z,12.63
2019-04-03T09:44:53.699Z,14.15
2019-04-03T09:47:24.023Z,12.68
2019-04-03T09:49:52.559Z,13.08
2019-04-03T09:52:22.617Z,12.73
2019-04-03T09:54:51.233Z,13.45
2019-04-03T09:57:19.918Z,12.75
2019-04-03T09:59:48.586Z,12.88
2019-04-03T10:02:19.582Z,13.72
2019-04-03T10:04:47.291Z,12.58
2019-04-03T10:07:17.383Z,11.93
2019-04-03T10:09:46.167Z,12.37
2019-04-03T10:12:14.799Z,11.15
2019-04-03T10:14:43.305Z,10.93
2019-04-03T10:17:14.268Z,9.85
2019-04-03T10:19:44.954Z,9.43
2019-04-03T10:22:24.930Z,10.50
2019-04-03T10:24:54.133Z,12.03
2019-04-03T10:27:22.611Z,14.40
2019-04-03T10:29:51.961Z,12.80
2019-04-03T10:32:20.413Z,12.23
2019-04-03T10:34:51.405Z,14.75
2019-04-03T10:37:20.154Z,12.95
2019-04-03T10:39:52.201Z,14.03
2019-04-03T10:42:19.304Z,10.55
2019-04-03T10:44:47.861Z,7.25
2019-04-03T10:47:16.435Z,7.00
2019-04-03T10:49:45.172Z,7.28
2019-04-03T10:52:14.371Z,5.97
2019-04-03T10:54:43.984Z,4.20
2019-04-03T10:57:12.413Z,4.17
2019-04-03T10:59:40.841Z,4.55
2019-04-03T11:02:09.380Z,4.30
2019-04-03T11:04:37.815Z,4.80
2019-04-03T11:07:06.257Z,4.33
2019-04-03T11:09:34.722Z,4.03
2019-04-03T11:12:03.235Z,4.25
2019-04-03T11:14:31.802Z,4.58
2019-04-03T11:17:00.544Z,4.67
2019-04-03T11:19:30.002Z,5.03
2019-04-03T11:21:58.500Z,4.42
2019-04-03T11:24:26.979Z,4.55
2019-04-03T11:27:01.955Z,4.85
2019-04-03T11:29:30.633Z,5.33
2019-04-03T11:31:59.298Z,6.35
2019-04-03T11:34:27.814Z,7.28
2019-04-03T11:36:56.254Z,5.60
2019-04-03T11:39:24.715Z,5.35
2019-04-03T11:41:55.578Z,5.65
2019-04-03T11:44:23.313Z,5.40
2019-04-03T11:46:51.763Z,5.08
2019-04-03T11:49:20.994Z,6.95
2019-04-03T11:51:50.375Z,5.40
2019-04-03T11:54:19.146Z,6.30
2019-04-03T11:56:47.964Z,5.80
2019-04-03T11:59:16.485Z,5.58
2019-04-03T12:01:45.289Z,5.50
2019-04-03T12:04:13.987Z,5.97
2019-04-03T12:06:42.491Z,5.03
2019-04-03T12:09:10.943Z,5.12
2019-04-03T12:11:40.052Z,5.83
2019-04-03T12:14:08.597Z,6.05
2019-04-03T12:16:37.108Z,6.42
2019-04-03T12:19:06.017Z,6.58
2019-04-03T12:21:34.986Z,6.25
2019-04-03T12:24:03.865Z,6.35
2019-04-03T12:26:32.343Z,6.10
2019-04-03T12:29:00.785Z,4.83
2019-04-03T12:31:29.230Z,4.22
2019-04-03T12:34:03.368Z,5.00
2019-04-03T12:36:28.300Z,4.70
2019-04-03T12:38:57.275Z,4.28
2019-04-03T12:41:45.120Z,4.85
2019-04-03T12:44:13.578Z,4.90
2019-04-03T12:46:42.863Z,4.67
2019-04-03T12:49:11.300Z,4.78
2019-04-03T12:51:39.743Z,4.78
2019-04-03T12:54:08.344Z,4.62
2019-04-03T12:56:37.057Z,5.15
2019-04-03T12:59:07.470Z,5.12
2019-04-03T13:01:35.670Z,5.42
2019-04-03T13:04:04.723Z,5.10
2019-04-03T13:06:33.602Z,5.20
2019-04-03T13:09:02.163Z,4.83
2019-04-03T13:11:32.795Z,4.83
2019-04-03T13:14:01.573Z,5.10
2019-04-03T13:16:30.007Z,4.87
2019-04-03T13:18:58.560Z,4.83
2019-04-03T13:21:27.337Z,5.05
2019-04-03T13:24:17.107Z,4.85
2019-04-03T13:26:45.401Z,4.85
2019-04-03T13:29:14.176Z,5.22
2019-04-03T13:31:44.457Z,5.53
2019-04-03T13:34:13.226Z,5.97
2019-04-03T13:36:42.154Z,6.22
2019-04-03T13:39:10.896Z,6.80
2019-04-03T13:41:41.674Z,6.87
2019-04-03T13:44:09.568Z,6.95
2019-04-03T13:46:38.075Z,6.85
2019-04-03T13:49:06.512Z,6.67
2019-04-03T13:51:35.151Z,7.05
2019-04-03T13:54:06.631Z,8.03
2019-04-03T13:56:34.677Z,7.87
2019-04-03T13:59:03.358Z,8.20
2019-04-03T14:01:31.863Z,7.92
2019-04-03T14:04:00.465Z,9.13
2019-04-03T14:06:33.946Z,9.43
2019-04-03T14:09:09.711Z,10.18
2019-04-03T14:14:08.904Z,12.13
2019-04-03T14:16:37.370Z,13.80
2019-04-03T14:19:05.908Z,14.38
2019-04-03T14:21:35.750Z,16.23
2019-04-03T14:24:07.115Z,18.00
2019-04-03T14:26:35.425Z,17.02
2019-04-03T14:29:05.724Z,17.12
2019-04-03T14:31:37.477Z,17.52
2019-04-03T14:34:05.142Z,17.15
2019-04-03T14:36:33.746Z,16.93
2019-04-03T14:39:03.169Z,18.55
2019-04-03T14:41:34.987Z,18.37
2019-04-03T14:44:03.464Z,18.80
2019-04-03T14:46:32.431Z,17.00
2019-04-03T14:49:03.083Z,17.02
2019-04-03T14:51:31.597Z,17.55
2019-04-03T14:54:00.181Z,16.05
2019-04-03T14:56:30.412Z,16.02
2019-04-03T14:58:59.511Z,17.10
2019-04-03T15:01:28.583Z,16.07
2019-04-03T15:03:59.988Z,16.12
2019-04-03T15:06:27.304Z,15.32
2019-04-03T15:08:56.057Z,15.45
2019-04-03T15:11:24.698Z,16.05
2019-04-03T15:13:53.151Z,15.98
2019-04-03T15:16:21.621Z,14.70
2019-04-03T15:18:50.334Z,14.33
2019-04-03T15:21:18.902Z,15.40
2019-04-03T15:23:47.491Z,15.53
2019-04-03T15:26:16.094Z,13.40
2019-04-03T15:28:44.534Z,15.45
2019-04-03T15:31:14.298Z,14.55
2019-04-03T15:33:43.585Z,13.35
2019-04-03T15:36:12.313Z,12.78
2019-04-03T15:38:40.833Z,13.62
2019-04-03T15:41:09.271Z,14.28
2019-04-03T15:43:39.720Z,13.25
2019-04-03T15:46:08.652Z,13.80
2019-04-03T15:48:41.414Z,13.05
2019-04-03T15:51:09.941Z,12.53
2019-04-03T15:53:38.418Z,12.68
2019-04-03T15:56:06.890Z,13.05
2019-04-03T15:58:35.333Z,14.25
2019-04-03T16:01:06.833Z,13.95
2019-04-03T16:03:35.431Z,12.73
2019-04-03T16:06:04.760Z,13.20
2019-04-03T16:08:33.759Z,14.07
2019-04-03T16:11:02.736Z,13.03
2019-04-03T16:13:31.840Z,13.85
2019-04-03T16:16:01.662Z,13.60
2019-04-03T16:18:30.730Z,14.60
2019-04-03T16:20:59.507Z,14.25
2019-04-03T16:23:31.198Z,14.00
2019-04-03T16:25:59.790Z,14.00
2019-04-03T16:28:28.788Z,13.90
2019-04-03T16:30:57.277Z,13.90
2019-04-03T16:33:25.776Z,13.95
2019-04-03T16:35:54.238Z,13.53
2019-04-03T16:38:22.946Z,13.95
2019-04-03T16:40:51.401Z,13.93
2019-04-03T16:43:22.225Z,14.35
2019-04-03T16:45:51.312Z,14.00
2019-04-03T16:48:19.972Z,13.75
2019-04-03T16:50:49.540Z,13.20
2019-04-03T16:53:20.009Z,14.40
2019-04-03T16:55:48.379Z,14.18
2019-04-03T16:58:17.418Z,13.90
2019-04-03T17:00:46.125Z,14.28
2019-04-03T17:03:14.671Z,14.73
2019-04-03T17:05:44.041Z,13.98
2019-04-03T17:08:13.498Z,14.35
2019-04-03T17:10:42.376Z,13.68
2019-04-03T17:13:13.203Z,13.18
2019-04-03T17:15:42.047Z,13.40
2019-04-03T17:18:10.837Z,13.83
2019-04-03T17:20:40.944Z,14.58
2019-04-03T17:23:11.046Z,14.03
2019-04-03T17:25:48.265Z,14.33
2019-04-03T17:28:10.407Z,13.65
2019-04-03T17:30:39.023Z,13.58
2019-04-03T17:33:07.480Z,13.83
2019-04-03T17:35:36.439Z,14.00
2019-04-03T17:38:07.905Z,14.87
2019-04-03T17:40:51.819Z,15.28
2019-04-03T17:43:21.123Z,14.63
2019-04-03T17:45:49.577Z,15.48
2019-04-03T17:48:18.031Z,14.43
2019-04-03T17:50:48.930Z,16.00
2019-04-03T17:53:18.468Z,15.63
2019-04-03T17:55:48.484Z,16.10
2019-04-03T17:58:17.458Z,16.25
2019-04-03T18:00:51.792Z,16.73
2019-04-03T18:03:23.191Z,16.37
2019-04-03T18:05:51.635Z,16.67
2019-04-03T18:08:20.172Z,16.02
2019-04-03T18:10:48.616Z,16.93
2019-04-03T18:13:19.474Z,17.07
2019-04-03T18:15:47.917Z,17.77
2019-04-03T18:18:16.375Z,18.65
2019-04-03T18:20:45.303Z,18.23
2019-04-03T18:23:13.851Z,17.37
2019-04-03T18:25:43.531Z,19.65
2019-04-03T18:28:11.990Z,18.20
2019-04-03T18:30:42.114Z,17.95
2019-04-03T18:33:10.595Z,18.45
2019-04-03T18:35:40.579Z,17.70
2019-04-03T18:38:09.010Z,17.30
2019-04-03T18:40:37.452Z,16.97
2019-04-03T18:43:05.963Z,16.62
2019-04-03T18:45:34.471Z,17.27
2019-04-03T18:48:02.990Z,17.92
2019-04-03T18:50:33.112Z,17.98
2019-04-03T18:53:01.635Z,15.80
2019-04-03T18:55:30.134Z,15.30
2019-04-03T18:57:58.643Z,16.20
2019-04-03T19:00:27.062Z,16.15
2019-04-03T19:02:55.504Z,15.15
2019-04-03T19:05:23.938Z,16.70
2019-04-03T19:07:52.379Z,15.70
2019-04-03T19:10:22.911Z,16.67
2019-04-03T19:12:51.055Z,15.68
2019-04-03T19:15:19.495Z,16.25
2019-04-03T19:17:59.524Z,17.98
2019-04-03T19:20:18.161Z,16.55
2019-04-03T19:22:46.598Z,17.55
2019-04-03T19:25:15.110Z,18.80
2019-04-03T19:27:43.552Z,18.73
2019-04-03T19:30:12.624Z,18.60
2019-04-03T19:32:43.048Z,19.50
2019-04-03T19:35:11.327Z,19.10
2019-04-03T19:37:39.845Z,19.92
2019-04-03T19:40:09.860Z,20.65
2019-04-03T19:42:41.918Z,18.67
2019-04-03T19:45:13.089Z,18.23
2019-04-03T19:47:41.786Z,19.27
2019-04-03T19:50:10.768Z,17.90
2019-04-03T19:52:41.566Z,18.95
2019-04-03T19:55:09.862Z,17.98
2019-04-03T19:57:38.388Z,18.42
2019-04-03T20:00:08.835Z,19.55
2019-04-03T20:02:38.265Z,18.82
2019-04-03T20:05:07.865Z,19.00
2019-04-03T20:07:36.321Z,19.23
2019-04-03T20:10:09.917Z,18.67
2019-04-03T20:12:38.526Z,20.02
2019-04-03T20:15:07.904Z,20.52
2019-04-03T20:17:36.338Z,19.52
2019-04-03T20:20:10.926Z,20.77
2019-04-03T20:22:42.311Z,21.97
2019-04-03T20:25:09.765Z,19.07
2019-04-03T20:27:38.284Z,21.00
2019-04-03T20:30:10.140Z,20.82
2019-04-03T20:32:40.771Z,19.92
2019-04-03T20:35:09.881Z,21.02
2019-04-03T20:37:38.345Z,20.62
2019-04-03T20:40:07.518Z,21.05
2019-04-03T20:42:36.155Z,21.07
2019-04-03T20:45:07.907Z,22.67
2019-04-03T20:47:36.351Z,22.48
2019-04-03T20:50:06.984Z,21.75
2019-04-03T20:52:36.203Z,21.40
2019-04-03T20:55:06.603Z,20.52
2019-04-03T20:57:35.859Z,20.52
2019-04-03T21:00:12.570Z,22.50
2019-04-03T21:02:42.546Z,21.93
2019-04-03T21:05:11.117Z,22.20
2019-04-03T21:07:41.282Z,24.10
2019-04-03T21:10:10.270Z,21.70
2019-04-03T21:12:38.726Z,24.12
2019-04-03T21:15:09.043Z,22.32
2019-04-03T21:17:37.626Z,26.17
2019-04-03T21:20:06.586Z,24.50
2019-04-03T21:22:35.034Z,25.60
2019-04-03T21:25:05.311Z,24.75
2019-04-03T21:27:34.522Z,23.77
2019-04-03T21:30:09.648Z,23.35
2019-04-03T21:32:38.091Z,24.32
2019-04-03T21:35:06.614Z,24.47
2019-04-03T21:37:35.050Z,24.72
2019-04-03T21:40:05.092Z,25.10
2019-04-03T21:42:33.854Z,23.27
2019-04-03T21:45:03.003Z,23.98
2019-04-03T21:47:32.480Z,25.80
2019-04-03T21:50:03.477Z,24.77
2019-04-03T21:52:31.182Z,25.50
2019-04-03T21:54:59.671Z,26.05
2019-04-03T21:57:28.114Z,23.12
2019-04-03T21:59:56.556Z,23.00
2019-04-03T22:02:25.019Z,23.98
2019-04-03T22:04:53.984Z,24.45
2019-04-03T22:07:22.966Z,22.80
2019-04-03T22:09:51.410Z,23.05
2019-04-03T22:12:19.837Z,20.80
2019-04-03T22:14:48.292Z,20.82
2019-04-03T22:17:16.731Z,22.42
2019-04-03T22:19:45.171Z,20.55
2019-04-03T22:22:14.665Z,21.17
2019-04-03T22:24:43.420Z,20.08
2019-04-03T22:27:12.142Z,20.70
2019-04-03T22:29:40.744Z,19.23
2019-04-03T22:32:09.310Z,21.42
2019-04-03T22:34:37.773Z,19.98
2019-04-03T22:37:06.270Z,21.23
2019-04-03T22:39:34.709Z,19.62
2019-04-03T22:42:03.186Z,20.30
2019-04-03T22:44:31.614Z,18.90
2019-04-03T22:47:00.059Z,18.95
2019-04-03T22:49:28.508Z,18.35
2019-04-03T22:51:58.586Z,19.57
2019-04-03T22:54:27.080Z,19.65
2019-04-03T22:56:55.505Z,19.10
2019-04-03T22:59:25.055Z,19.37
2019-04-03T23:01:53.481Z,20.68
2019-04-03T23:04:21.929Z,19.77
2019-04-03T23:06:50.834Z,22.27
2019-04-03T23:09:19.269Z,22.40
2019-04-03T23:11:47.710Z,22.27
2019-04-03T23:14:16.160Z,24.35
2019-04-03T23:16:44.773Z,24.77
2019-04-03T23:19:13.206Z,24.20
2019-04-03T23:21:41.647Z,25.35
2019-04-03T23:24:10.087Z,24.92
2019-04-03T23:26:38.526Z,25.92
2019-04-03T23:29:06.959Z,25.95
2019-04-03T23:31:35.394Z,27.87
2019-04-03T23:34:03.903Z,27.15
2019-04-03T23:36:32.360Z,27.98
2019-04-03T23:39:00.790Z,27.75
2019-04-03T23:41:29.221Z,27.60
2019-04-03T23:43:57.664Z,29.07
2019-04-03T23:46:26.094Z,29.45
2019-04-03T23:48:54.542Z,28.83
2019-04-03T23:51:23.732Z,29.65
2019-04-03T23:53:53.131Z,29.90
2019-04-03T23:56:21.595Z,30.62
2019-04-03T23:58:50.029Z,30.92
